sensor_id;sensor_type;location;lat;lon;timestamp;temperature;humidity
44215;DHT22;29884;47.450;19.124;2023-07-28T00:00:50;17.20;99.90
44215;DHT22;29884;47.450;19.124;2023-07-28T00:03:16;17.30;99.90
44215;DHT22;29884;47.450;19.124;2023-07-28T00:05:41;17.30;99.90
44215;DHT22;29884;47.450;19.124;2023-07-28T00:08:07;17.30;99.90
44215;DHT22;29884;47.450;19.124;2023-07-28T00:10:33;17.30;99.90
44215;DHT22;29884;47.450;19.124;2023-07-28T00:12:59;17.30;99.90
44215;DHT22;29884;47.450;19.124;2023-07-28T00:15:24;17.30;99.90
44215;DHT22;29884;47.450;19.124;2023-07-28T00:17:50;17.30;99.90
44215;DHT22;29884;47.450;19.124;2023-07-28T00:20:17;17.30;99.90
44215;DHT22;29884;47.450;19.124;2023-07-28T00:22:42;17.30;99.90
44215;DHT22;29884;47.450;19.124;2023-07-28T00:25:08;17.30;99.90
44215;DHT22;29884;47.450;19.124;2023-07-28T00:27:34;17.20;99.90
44215;DHT22;29884;47.450;19.124;2023-07-28T00:29:59;17.30;99.90
44215;DHT22;29884;47.450;19.124;2023-07-28T00:32:25;17.30;99.90
44215;DHT22;29884;47.450;19.124;2023-07-28T00:34:51;17.20;99.90
44215;DHT22;29884;47.450;19.124;2023-07-28T00:37:16;17.20;99.90
44215;DHT22;29884;47.450;19.124;2023-07-28T00:39:42;17.20;99.90
44215;DHT22;29884;47.450;19.124;2023-07-28T00:42:08;17.20;99.90
44215;DHT22;29884;47.450;19.124;2023-07-28T00:44:35;17.20;99.90
44215;DHT22;29884;47.450;19.124;2023-07-28T00:47:00;17.20;99.90
44215;DHT22;29884;47.450;19.124;2023-07-28T00:49:26;17.20;99.90
44215;DHT22;29884;47.450;19.124;2023-07-28T00:51:52;17.20;99.90
44215;DHT22;29884;47.450;19.124;2023-07-28T00:54:18;17.30;99.90
44215;DHT22;29884;47.450;19.124;2023-07-28T00:56:44;17.20;99.90
44215;DHT22;29884;47.450;19.124;2023-07-28T00:59:11;17.30;99.90
44215;DHT22;29884;47.450;19.124;2023-07-28T01:01:36;17.20;99.90
44215;DHT22;29884;47.450;19.124;2023-07-28T01:04:02;17.20;99.90
44215;DHT22;29884;47.450;19.124;2023-07-28T01:09:04;17.30;99.90
44215;DHT22;29884;47.450;19.124;2023-07-28T01:11:31;17.20;99.90
44215;DHT22;29884;47.450;19.124;2023-07-28T01:13:57;17.20;99.90
44215;DHT22;29884;47.450;19.124;2023-07-28T01:16:23;17.30;99.90
44215;DHT22;29884;47.450;19.124;2023-07-28T01:18:49;17.30;99.90
44215;DHT22;29884;47.450;19.124;2023-07-28T01:21:20;17.30;99.90
44215;DHT22;29884;47.450;19.124;2023-07-28T01:24:13;17.30;99.90
44215;DHT22;29884;47.450;19.124;2023-07-28T01:26:37;17.20;99.90
44215;DHT22;29884;47.450;19.124;2023-07-28T01:29:05;17.20;99.90
44215;DHT22;29884;47.450;19.124;2023-07-28T01:31:31;17.20;99.90
44215;DHT22;29884;47.450;19.124;2023-07-28T01:33:57;17.20;99.90
44215;DHT22;29884;47.450;19.124;2023-07-28T01:36:22;17.20;99.90
44215;DHT22;29884;47.450;19.124;2023-07-28T01:38:48;17.20;99.90
44215;DHT22;29884;47.450;19.124;2023-07-28T01:41:14;17.10;99.90
44215;DHT22;29884;47.450;19.124;2023-07-28T01:43:40;17.10;99.90
44215;DHT22;29884;47.450;19.124;2023-07-28T01:46:07;17.20;99.90
44215;DHT22;29884;47.450;19.124;2023-07-28T01:48:33;17.10;99.90
44215;DHT22;29884;47.450;19.124;2023-07-28T01:50:58;17.00;99.90
44215;DHT22;29884;47.450;19.124;2023-07-28T01:53:24;16.90;99.90
44215;DHT22;29884;47.450;19.124;2023-07-28T01:55:49;17.00;99.90
44215;DHT22;29884;47.450;19.124;2023-07-28T01:58:15;17.00;99.90
44215;DHT22;29884;47.450;19.124;2023-07-28T02:00:41;16.90;99.90
44215;DHT22;29884;47.450;19.124;2023-07-28T02:03:07;16.90;99.90
44215;DHT22;29884;47.450;19.124;2023-07-28T02:05:32;16.90;99.90
44215;DHT22;29884;47.450;19.124;2023-07-28T02:07:58;17.00;99.90
44215;DHT22;29884;47.450;19.124;2023-07-28T02:10:29;16.90;99.90
44215;DHT22;29884;47.450;19.124;2023-07-28T02:12:55;16.90;99.90
44215;DHT22;29884;47.450;19.124;2023-07-28T02:15:20;16.90;99.90
44215;DHT22;29884;47.450;19.124;2023-07-28T02:17:46;16.80;99.90
44215;DHT22;29884;47.450;19.124;2023-07-28T02:20:12;16.80;99.90
44215;DHT22;29884;47.450;19.124;2023-07-28T02:22:41;16.90;99.90
44215;DHT22;29884;47.450;19.124;2023-07-28T02:25:07;16.80;99.90
44215;DHT22;29884;47.450;19.124;2023-07-28T02:27:32;16.90;99.90
44215;DHT22;29884;47.450;19.124;2023-07-28T02:29:58;16.80;99.90
44215;DHT22;29884;47.450;19.124;2023-07-28T02:32:25;16.80;99.90
44215;DHT22;29884;47.450;19.124;2023-07-28T02:34:51;16.70;99.90
44215;DHT22;29884;47.450;19.124;2023-07-28T02:37:17;16.60;99.90
44215;DHT22;29884;47.450;19.124;2023-07-28T02:39:42;16.50;99.90
44215;DHT22;29884;47.450;19.124;2023-07-28T02:42:08;16.50;99.90
44215;DHT22;29884;47.450;19.124;2023-07-28T02:44:34;16.50;99.90
44215;DHT22;29884;47.450;19.124;2023-07-28T02:47:00;16.50;99.90
44215;DHT22;29884;47.450;19.124;2023-07-28T02:49:25;16.40;99.90
44215;DHT22;29884;47.450;19.124;2023-07-28T02:51:51;16.40;99.90
44215;DHT22;29884;47.450;19.124;2023-07-28T02:54:17;16.40;99.90
44215;DHT22;29884;47.450;19.124;2023-07-28T02:56:43;16.40;99.90
44215;DHT22;29884;47.450;19.124;2023-07-28T02:59:08;16.30;99.90
44215;DHT22;29884;47.450;19.124;2023-07-28T03:01:34;16.30;99.90
44215;DHT22;29884;47.450;19.124;2023-07-28T03:04:03;16.40;99.90
44215;DHT22;29884;47.450;19.124;2023-07-28T03:06:29;16.40;99.90
44215;DHT22;29884;47.450;19.124;2023-07-28T03:08:55;16.40;99.90
44215;DHT22;29884;47.450;19.124;2023-07-28T03:11:21;16.40;99.90
44215;DHT22;29884;47.450;19.124;2023-07-28T03:13:46;16.40;99.90
44215;DHT22;29884;47.450;19.124;2023-07-28T03:16:12;16.40;99.90
44215;DHT22;29884;47.450;19.124;2023-07-28T03:18:37;16.40;99.90
44215;DHT22;29884;47.450;19.124;2023-07-28T03:21:03;16.40;99.90
44215;DHT22;29884;47.450;19.124;2023-07-28T03:23:29;16.40;99.90
44215;DHT22;29884;47.450;19.124;2023-07-28T03:25:55;16.40;99.90
44215;DHT22;29884;47.450;19.124;2023-07-28T03:28:20;16.40;99.90
44215;DHT22;29884;47.450;19.124;2023-07-28T03:30:46;16.40;99.90
44215;DHT22;29884;47.450;19.124;2023-07-28T03:33:12;16.40;99.90
44215;DHT22;29884;47.450;19.124;2023-07-28T03:35:38;16.40;99.90
44215;DHT22;29884;47.450;19.124;2023-07-28T03:38:03;16.50;99.90
44215;DHT22;29884;47.450;19.124;2023-07-28T03:40:29;16.50;99.90
44215;DHT22;29884;47.450;19.124;2023-07-28T03:42:55;16.50;99.90
44215;DHT22;29884;47.450;19.124;2023-07-28T03:45:21;16.50;99.90
44215;DHT22;29884;47.450;19.124;2023-07-28T03:47:47;16.50;99.90
44215;DHT22;29884;47.450;19.124;2023-07-28T03:50:12;16.50;99.90
44215;DHT22;29884;47.450;19.124;2023-07-28T03:52:38;16.50;99.90
44215;DHT22;29884;47.450;19.124;2023-07-28T03:55:04;16.30;99.90
44215;DHT22;29884;47.450;19.124;2023-07-28T03:57:29;16.40;99.90
44215;DHT22;29884;47.450;19.124;2023-07-28T03:59:55;16.30;99.90
44215;DHT22;29884;47.450;19.124;2023-07-28T04:02:21;16.40;99.90
44215;DHT22;29884;47.450;19.124;2023-07-28T04:04:47;16.40;99.90
44215;DHT22;29884;47.450;19.124;2023-07-28T04:07:12;16.40;99.90
44215;DHT22;29884;47.450;19.124;2023-07-28T04:09:38;16.50;99.90
44215;DHT22;29884;47.450;19.124;2023-07-28T04:12:04;16.50;99.90
44215;DHT22;29884;47.450;19.124;2023-07-28T04:14:29;16.60;99.90
44215;DHT22;29884;47.450;19.124;2023-07-28T04:16:55;16.60;99.90
44215;DHT22;29884;47.450;19.124;2023-07-28T04:19:21;16.60;99.90
44215;DHT22;29884;47.450;19.124;2023-07-28T04:21:46;16.60;99.90
44215;DHT22;29884;47.450;19.124;2023-07-28T04:24:12;16.60;99.90
44215;DHT22;29884;47.450;19.124;2023-07-28T04:26:38;16.70;99.90
44215;DHT22;29884;47.450;19.124;2023-07-28T04:29:03;16.70;99.90
44215;DHT22;29884;47.450;19.124;2023-07-28T04:31:29;16.70;99.90
44215;DHT22;29884;47.450;19.124;2023-07-28T04:34:02;16.70;99.90
44215;DHT22;29884;47.450;19.124;2023-07-28T04:36:28;16.80;99.90
44215;DHT22;29884;47.450;19.124;2023-07-28T04:38:54;16.80;99.90
44215;DHT22;29884;47.450;19.124;2023-07-28T04:41:19;16.80;99.90
44215;DHT22;29884;47.450;19.124;2023-07-28T04:43:46;16.80;99.90
44215;DHT22;29884;47.450;19.124;2023-07-28T04:46:12;16.80;99.90
44215;DHT22;29884;47.450;19.124;2023-07-28T04:48:37;16.80;99.90
44215;DHT22;29884;47.450;19.124;2023-07-28T04:51:03;16.90;99.90
44215;DHT22;29884;47.450;19.124;2023-07-28T04:53:29;17.00;99.90
44215;DHT22;29884;47.450;19.124;2023-07-28T04:55:54;17.10;99.90
44215;DHT22;29884;47.450;19.124;2023-07-28T04:58:21;17.20;99.90
44215;DHT22;29884;47.450;19.124;2023-07-28T05:00:47;17.30;99.90
44215;DHT22;29884;47.450;19.124;2023-07-28T05:03:13;17.40;99.90
44215;DHT22;29884;47.450;19.124;2023-07-28T05:05:39;17.40;99.90
44215;DHT22;29884;47.450;19.124;2023-07-28T05:08:08;17.40;99.90
44215;DHT22;29884;47.450;19.124;2023-07-28T05:10:34;17.40;99.90
44215;DHT22;29884;47.450;19.124;2023-07-28T05:13:00;17.40;99.90
44215;DHT22;29884;47.450;19.124;2023-07-28T05:15:25;17.50;99.90
44215;DHT22;29884;47.450;19.124;2023-07-28T05:17:51;17.60;99.90
44215;DHT22;29884;47.450;19.124;2023-07-28T05:20:17;17.70;99.90
44215;DHT22;29884;47.450;19.124;2023-07-28T05:22:42;17.70;99.90
44215;DHT22;29884;47.450;19.124;2023-07-28T05:25:08;17.80;99.90
44215;DHT22;29884;47.450;19.124;2023-07-28T05:27:34;17.80;99.90
44215;DHT22;29884;47.450;19.124;2023-07-28T05:30:00;17.70;99.90
44215;DHT22;29884;47.450;19.124;2023-07-28T05:32:25;17.80;99.90
44215;DHT22;29884;47.450;19.124;2023-07-28T05:34:52;17.80;99.90
44215;DHT22;29884;47.450;19.124;2023-07-28T05:37:17;17.80;99.90
44215;DHT22;29884;47.450;19.124;2023-07-28T05:39:43;17.80;99.90
44215;DHT22;29884;47.450;19.124;2023-07-28T05:42:09;17.80;99.90
44215;DHT22;29884;47.450;19.124;2023-07-28T05:44:35;17.90;99.90
44215;DHT22;29884;47.450;19.124;2023-07-28T05:47:01;17.90;99.90
44215;DHT22;29884;47.450;19.124;2023-07-28T05:49:26;18.00;99.90
44215;DHT22;29884;47.450;19.124;2023-07-28T05:51:52;18.00;99.90
44215;DHT22;29884;47.450;19.124;2023-07-28T05:54:18;18.00;99.90
44215;DHT22;29884;47.450;19.124;2023-07-28T05:56:44;18.00;99.90
44215;DHT22;29884;47.450;19.124;2023-07-28T05:59:10;18.00;99.90
44215;DHT22;29884;47.450;19.124;2023-07-28T06:01:35;18.10;99.90
44215;DHT22;29884;47.450;19.124;2023-07-28T06:04:01;18.20;99.90
44215;DHT22;29884;47.450;19.124;2023-07-28T06:06:27;18.30;99.90
44215;DHT22;29884;47.450;19.124;2023-07-28T06:08:53;18.30;99.90
44215;DHT22;29884;47.450;19.124;2023-07-28T06:11:20;18.50;99.90
44215;DHT22;29884;47.450;19.124;2023-07-28T06:13:46;18.70;99.90
44215;DHT22;29884;47.450;19.124;2023-07-28T06:16:15;18.70;99.90
44215;DHT22;29884;47.450;19.124;2023-07-28T06:18:41;18.90;99.90
44215;DHT22;29884;47.450;19.124;2023-07-28T06:21:07;18.90;99.90
44215;DHT22;29884;47.450;19.124;2023-07-28T06:23:33;19.00;99.90
44215;DHT22;29884;47.450;19.124;2023-07-28T06:25:59;19.10;99.90
44215;DHT22;29884;47.450;19.124;2023-07-28T06:28:25;19.20;99.90
44215;DHT22;29884;47.450;19.124;2023-07-28T06:30:57;19.20;99.90
44215;DHT22;29884;47.450;19.124;2023-07-28T06:33:28;19.50;99.90
44215;DHT22;29884;47.450;19.124;2023-07-28T06:35:53;19.70;99.90
44215;DHT22;29884;47.450;19.124;2023-07-28T06:38:19;19.90;99.90
44215;DHT22;29884;47.450;19.124;2023-07-28T06:40:45;20.00;99.90
44215;DHT22;29884;47.450;19.124;2023-07-28T06:43:11;20.10;99.90
44215;DHT22;29884;47.450;19.124;2023-07-28T06:45:36;20.20;99.90
44215;DHT22;29884;47.450;19.124;2023-07-28T06:48:02;20.20;99.90
44215;DHT22;29884;47.450;19.124;2023-07-28T06:50:28;20.40;99.90
44215;DHT22;29884;47.450;19.124;2023-07-28T06:52:54;20.50;99.90
44215;DHT22;29884;47.450;19.124;2023-07-28T06:55:21;20.70;99.90
44215;DHT22;29884;47.450;19.124;2023-07-28T06:57:47;20.90;99.90
44215;DHT22;29884;47.450;19.124;2023-07-28T07:00:13;21.10;99.90
44215;DHT22;29884;47.450;19.124;2023-07-28T07:02:40;21.10;99.90
44215;DHT22;29884;47.450;19.124;2023-07-28T07:05:06;21.40;99.90
44215;DHT22;29884;47.450;19.124;2023-07-28T07:07:32;21.40;99.90
44215;DHT22;29884;47.450;19.124;2023-07-28T07:09:58;21.30;99.90
44215;DHT22;29884;47.450;19.124;2023-07-28T07:12:24;21.20;99.90
44215;DHT22;29884;47.450;19.124;2023-07-28T07:14:51;21.40;99.90
44215;DHT22;29884;47.450;19.124;2023-07-28T07:17:16;21.60;99.90
44215;DHT22;29884;47.450;19.124;2023-07-28T07:19:43;21.60;99.90
44215;DHT22;29884;47.450;19.124;2023-07-28T07:22:08;21.80;99.90
44215;DHT22;29884;47.450;19.124;2023-07-28T07:24:34;21.80;99.90
44215;DHT22;29884;47.450;19.124;2023-07-28T07:27:00;22.00;99.10
44215;DHT22;29884;47.450;19.124;2023-07-28T07:29:26;22.10;98.40
44215;DHT22;29884;47.450;19.124;2023-07-28T07:31:51;22.10;98.20
44215;DHT22;29884;47.450;19.124;2023-07-28T07:34:22;22.30;98.70
44215;DHT22;29884;47.450;19.124;2023-07-28T07:36:47;22.40;97.80
44215;DHT22;29884;47.450;19.124;2023-07-28T07:39:13;22.30;97.40
44215;DHT22;29884;47.450;19.124;2023-07-28T07:41:39;22.20;97.90
44215;DHT22;29884;47.450;19.124;2023-07-28T07:44:04;22.40;96.70
44215;DHT22;29884;47.450;19.124;2023-07-28T07:46:30;22.60;96.30
44215;DHT22;29884;47.450;19.124;2023-07-28T07:48:56;22.70;96.00
44215;DHT22;29884;47.450;19.124;2023-07-28T07:51:22;23.00;95.20
44215;DHT22;29884;47.450;19.124;2023-07-28T07:53:48;23.10;94.90
44215;DHT22;29884;47.450;19.124;2023-07-28T07:56:13;23.10;94.10
44215;DHT22;29884;47.450;19.124;2023-07-28T07:58:39;23.00;94.10
44215;DHT22;29884;47.450;19.124;2023-07-28T08:01:05;23.10;93.90
44215;DHT22;29884;47.450;19.124;2023-07-28T08:03:31;23.10;94.70
44215;DHT22;29884;47.450;19.124;2023-07-28T08:06:01;23.10;94.30
44215;DHT22;29884;47.450;19.124;2023-07-28T08:08:27;23.10;93.00
44215;DHT22;29884;47.450;19.124;2023-07-28T08:10:53;23.00;93.20
44215;DHT22;29884;47.450;19.124;2023-07-28T08:13:19;23.10;93.00
44215;DHT22;29884;47.450;19.124;2023-07-28T08:15:45;23.00;92.50
44215;DHT22;29884;47.450;19.124;2023-07-28T08:18:12;22.90;91.80
44215;DHT22;29884;47.450;19.124;2023-07-28T08:20:38;23.10;92.70
44215;DHT22;29884;47.450;19.124;2023-07-28T08:23:04;23.10;92.60
44215;DHT22;29884;47.450;19.124;2023-07-28T08:25:29;23.00;91.80
44215;DHT22;29884;47.450;19.124;2023-07-28T08:27:55;23.10;92.80
44215;DHT22;29884;47.450;19.124;2023-07-28T08:30:21;23.30;91.90
44215;DHT22;29884;47.450;19.124;2023-07-28T08:32:47;23.40;91.70
44215;DHT22;29884;47.450;19.124;2023-07-28T08:35:12;23.50;91.10
44215;DHT22;29884;47.450;19.124;2023-07-28T08:37:38;23.60;90.80
44215;DHT22;29884;47.450;19.124;2023-07-28T08:40:04;23.60;90.40
44215;DHT22;29884;47.450;19.124;2023-07-28T08:42:35;23.40;89.80
44215;DHT22;29884;47.450;19.124;2023-07-28T08:45:02;23.40;90.10
44215;DHT22;29884;47.450;19.124;2023-07-28T08:47:30;23.80;89.30
44215;DHT22;29884;47.450;19.124;2023-07-28T08:49:56;24.00;86.50
44215;DHT22;29884;47.450;19.124;2023-07-28T08:52:22;23.90;86.60
44215;DHT22;29884;47.450;19.124;2023-07-28T08:54:49;24.50;85.80
44215;DHT22;29884;47.450;19.124;2023-07-28T08:57:15;24.90;82.70
44215;DHT22;29884;47.450;19.124;2023-07-28T08:59:41;25.20;80.60
44215;DHT22;29884;47.450;19.124;2023-07-28T09:02:15;25.10;78.60
44215;DHT22;29884;47.450;19.124;2023-07-28T09:04:46;25.20;78.50
44215;DHT22;29884;47.450;19.124;2023-07-28T09:07:12;25.20;78.30
44215;DHT22;29884;47.450;19.124;2023-07-28T09:09:39;25.20;78.00
44215;DHT22;29884;47.450;19.124;2023-07-28T09:12:06;25.40;78.70
44215;DHT22;29884;47.450;19.124;2023-07-28T09:14:35;25.50;76.00
44215;DHT22;29884;47.450;19.124;2023-07-28T09:17:12;25.70;76.30
44215;DHT22;29884;47.450;19.124;2023-07-28T09:19:55;25.80;75.60
44215;DHT22;29884;47.450;19.124;2023-07-28T09:22:21;25.90;75.00
44215;DHT22;29884;47.450;19.124;2023-07-28T09:24:48;25.80;74.10
44215;DHT22;29884;47.450;19.124;2023-07-28T09:27:25;26.00;75.10
44215;DHT22;29884;47.450;19.124;2023-07-28T09:29:55;26.00;73.90
44215;DHT22;29884;47.450;19.124;2023-07-28T09:32:31;26.30;73.40
44215;DHT22;29884;47.450;19.124;2023-07-28T09:35:06;26.50;72.40
44215;DHT22;29884;47.450;19.124;2023-07-28T09:37:38;26.60;72.50
44215;DHT22;29884;47.450;19.124;2023-07-28T09:40:07;26.70;72.80
44215;DHT22;29884;47.450;19.124;2023-07-28T09:42:37;26.60;72.60
44215;DHT22;29884;47.450;19.124;2023-07-28T09:45:04;26.60;74.00
44215;DHT22;29884;47.450;19.124;2023-07-28T09:47:33;26.60;75.00
44215;DHT22;29884;47.450;19.124;2023-07-28T09:50:02;26.60;74.40
44215;DHT22;29884;47.450;19.124;2023-07-28T09:52:35;26.60;75.00
44215;DHT22;29884;47.450;19.124;2023-07-28T09:55:06;26.80;74.50
44215;DHT22;29884;47.450;19.124;2023-07-28T10:00:11;27.10;73.90
44215;DHT22;29884;47.450;19.124;2023-07-28T10:02:39;27.20;74.30
44215;DHT22;29884;47.450;19.124;2023-07-28T10:05:08;27.20;73.60
44215;DHT22;29884;47.450;19.124;2023-07-28T10:07:38;27.30;73.00
44215;DHT22;29884;47.450;19.124;2023-07-28T10:10:09;27.30;73.40
44215;DHT22;29884;47.450;19.124;2023-07-28T10:12:46;27.30;73.10
44215;DHT22;29884;47.450;19.124;2023-07-28T10:15:15;27.30;70.80
44215;DHT22;29884;47.450;19.124;2023-07-28T10:17:50;27.20;71.40
44215;DHT22;29884;47.450;19.124;2023-07-28T10:23:10;27.40;71.10
44215;DHT22;29884;47.450;19.124;2023-07-28T10:25:37;27.40;72.50
44215;DHT22;29884;47.450;19.124;2023-07-28T10:28:05;27.70;70.50
44215;DHT22;29884;47.450;19.124;2023-07-28T10:30:38;27.80;69.80
44215;DHT22;29884;47.450;19.124;2023-07-28T10:33:35;27.80;69.60
44215;DHT22;29884;47.450;19.124;2023-07-28T10:39:15;27.80;69.60
44215;DHT22;29884;47.450;19.124;2023-07-28T10:42:05;28.00;69.40
44215;DHT22;29884;47.450;19.124;2023-07-28T10:44:31;28.00;70.20
44215;DHT22;29884;47.450;19.124;2023-07-28T10:46:57;28.00;69.70
44215;DHT22;29884;47.450;19.124;2023-07-28T10:49:26;28.10;69.00
44215;DHT22;29884;47.450;19.124;2023-07-28T10:51:52;28.10;69.60
44215;DHT22;29884;47.450;19.124;2023-07-28T10:54:17;28.30;68.80
44215;DHT22;29884;47.450;19.124;2023-07-28T10:56:46;28.50;68.60
44215;DHT22;29884;47.450;19.124;2023-07-28T10:59:12;28.80;68.50
44215;DHT22;29884;47.450;19.124;2023-07-28T11:01:39;28.90;67.50
44215;DHT22;29884;47.450;19.124;2023-07-28T11:04:16;29.00;66.00
44215;DHT22;29884;47.450;19.124;2023-07-28T11:06:47;29.00;66.60
44215;DHT22;29884;47.450;19.124;2023-07-28T11:09:14;28.70;66.60
44215;DHT22;29884;47.450;19.124;2023-07-28T11:11:41;28.70;66.20
44215;DHT22;29884;47.450;19.124;2023-07-28T11:14:08;29.00;68.70
44215;DHT22;29884;47.450;19.124;2023-07-28T11:16:36;28.40;67.30
44215;DHT22;29884;47.450;19.124;2023-07-28T11:19:03;28.60;68.90
44215;DHT22;29884;47.450;19.124;2023-07-28T11:21:38;28.50;67.80
44215;DHT22;29884;47.450;19.124;2023-07-28T11:24:05;28.50;68.60
44215;DHT22;29884;47.450;19.124;2023-07-28T11:26:32;28.80;69.40
44215;DHT22;29884;47.450;19.124;2023-07-28T11:29:00;29.20;67.20
44215;DHT22;29884;47.450;19.124;2023-07-28T11:31:25;29.10;66.50
44215;DHT22;29884;47.450;19.124;2023-07-28T11:33:52;29.20;66.70
44215;DHT22;29884;47.450;19.124;2023-07-28T11:36:26;29.70;67.30
44215;DHT22;29884;47.450;19.124;2023-07-28T11:38:53;29.30;64.00
44215;DHT22;29884;47.450;19.124;2023-07-28T11:41:20;29.10;65.30
44215;DHT22;29884;47.450;19.124;2023-07-28T11:43:50;29.40;64.90
44215;DHT22;29884;47.450;19.124;2023-07-28T11:46:35;29.50;65.50
44215;DHT22;29884;47.450;19.124;2023-07-28T11:51:43;29.90;63.60
44215;DHT22;29884;47.450;19.124;2023-07-28T11:54:15;29.60;62.80
44215;DHT22;29884;47.450;19.124;2023-07-28T11:56:45;29.40;65.50
44215;DHT22;29884;47.450;19.124;2023-07-28T11:59:14;29.70;62.70
44215;DHT22;29884;47.450;19.124;2023-07-28T12:04:23;29.90;60.70
44215;DHT22;29884;47.450;19.124;2023-07-28T12:07:07;29.80;61.10
44215;DHT22;29884;47.450;19.124;2023-07-28T12:09:53;29.90;61.50
44215;DHT22;29884;47.450;19.124;2023-07-28T12:12:27;30.10;61.70
44215;DHT22;29884;47.450;19.124;2023-07-28T12:14:55;30.10;60.70
44215;DHT22;29884;47.450;19.124;2023-07-28T12:17:22;30.30;60.90
44215;DHT22;29884;47.450;19.124;2023-07-28T12:22:24;30.20;60.00
44215;DHT22;29884;47.450;19.124;2023-07-28T12:24:49;30.30;60.70
44215;DHT22;29884;47.450;19.124;2023-07-28T12:27:15;30.50;58.80
44215;DHT22;29884;47.450;19.124;2023-07-28T12:29:41;30.50;58.60
44215;DHT22;29884;47.450;19.124;2023-07-28T12:32:07;30.10;60.30
44215;DHT22;29884;47.450;19.124;2023-07-28T12:34:33;30.10;59.70
44215;DHT22;29884;47.450;19.124;2023-07-28T12:36:59;30.00;59.90
44215;DHT22;29884;47.450;19.124;2023-07-28T12:39:25;29.90;60.40
44215;DHT22;29884;47.450;19.124;2023-07-28T12:41:51;30.00;60.10
44215;DHT22;29884;47.450;19.124;2023-07-28T12:44:20;30.00;60.20
44215;DHT22;29884;47.450;19.124;2023-07-28T12:46:46;30.10;60.00
44215;DHT22;29884;47.450;19.124;2023-07-28T12:49:11;30.30;60.90
44215;DHT22;29884;47.450;19.124;2023-07-28T12:51:37;30.50;59.00
44215;DHT22;29884;47.450;19.124;2023-07-28T12:54:03;30.50;58.50
44215;DHT22;29884;47.450;19.124;2023-07-28T12:56:29;30.30;58.00
44215;DHT22;29884;47.450;19.124;2023-07-28T12:58:55;30.10;58.40
44215;DHT22;29884;47.450;19.124;2023-07-28T13:01:21;30.00;58.30
44215;DHT22;29884;47.450;19.124;2023-07-28T13:03:46;30.00;58.40
44215;DHT22;29884;47.450;19.124;2023-07-28T13:06:12;30.20;57.00
44215;DHT22;29884;47.450;19.124;2023-07-28T13:08:38;30.60;56.90
44215;DHT22;29884;47.450;19.124;2023-07-28T13:11:03;30.40;55.70
44215;DHT22;29884;47.450;19.124;2023-07-28T13:13:29;30.30;56.30
44215;DHT22;29884;47.450;19.124;2023-07-28T13:15:56;30.10;57.10
44215;DHT22;29884;47.450;19.124;2023-07-28T13:18:23;30.30;57.10
44215;DHT22;29884;47.450;19.124;2023-07-28T13:20:50;30.60;55.90
44215;DHT22;29884;47.450;19.124;2023-07-28T13:23:16;30.50;55.60
44215;DHT22;29884;47.450;19.124;2023-07-28T13:25:42;30.40;56.00
44215;DHT22;29884;47.450;19.124;2023-07-28T13:28:07;30.70;55.00
44215;DHT22;29884;47.450;19.124;2023-07-28T13:30:33;30.80;55.50
44215;DHT22;29884;47.450;19.124;2023-07-28T13:32:59;30.90;55.40
44215;DHT22;29884;47.450;19.124;2023-07-28T13:35:25;31.00;55.30
44215;DHT22;29884;47.450;19.124;2023-07-28T13:37:50;30.90;54.40
44215;DHT22;29884;47.450;19.124;2023-07-28T13:40:16;30.60;54.70
44215;DHT22;29884;47.450;19.124;2023-07-28T13:42:41;31.00;56.40
44215;DHT22;29884;47.450;19.124;2023-07-28T13:45:09;30.70;55.40
44215;DHT22;29884;47.450;19.124;2023-07-28T13:47:35;30.10;55.10
44215;DHT22;29884;47.450;19.124;2023-07-28T13:50:00;29.70;55.90
44215;DHT22;29884;47.450;19.124;2023-07-28T13:52:26;29.40;57.10
44215;DHT22;29884;47.450;19.124;2023-07-28T13:54:52;29.30;57.90
44215;DHT22;29884;47.450;19.124;2023-07-28T13:57:18;29.10;58.70
44215;DHT22;29884;47.450;19.124;2023-07-28T13:59:44;29.00;58.90
44215;DHT22;29884;47.450;19.124;2023-07-28T14:02:10;28.70;59.20
44215;DHT22;29884;47.450;19.124;2023-07-28T14:04:36;28.70;59.30
44215;DHT22;29884;47.450;19.124;2023-07-28T14:07:01;28.70;59.80
44215;DHT22;29884;47.450;19.124;2023-07-28T14:09:27;28.60;60.30
44215;DHT22;29884;47.450;19.124;2023-07-28T14:11:53;28.50;60.30
44215;DHT22;29884;47.450;19.124;2023-07-28T14:14:18;28.50;60.60
44215;DHT22;29884;47.450;19.124;2023-07-28T14:16:44;28.40;61.00
44215;DHT22;29884;47.450;19.124;2023-07-28T14:19:10;28.30;62.30
44215;DHT22;29884;47.450;19.124;2023-07-28T14:21:35;28.20;62.50
44215;DHT22;29884;47.450;19.124;2023-07-28T14:24:06;28.20;62.70
44215;DHT22;29884;47.450;19.124;2023-07-28T14:26:32;28.50;63.20
44215;DHT22;29884;47.450;19.124;2023-07-28T14:28:58;28.80;62.70
44215;DHT22;29884;47.450;19.124;2023-07-28T14:31:23;28.50;63.00
44215;DHT22;29884;47.450;19.124;2023-07-28T14:33:49;28.50;63.90
44215;DHT22;29884;47.450;19.124;2023-07-28T14:36:15;28.50;64.90
44215;DHT22;29884;47.450;19.124;2023-07-28T14:38:42;28.70;65.20
44215;DHT22;29884;47.450;19.124;2023-07-28T14:41:08;29.00;65.60
44215;DHT22;29884;47.450;19.124;2023-07-28T14:43:34;29.10;64.50
44215;DHT22;29884;47.450;19.124;2023-07-28T14:46:00;29.30;62.40
44215;DHT22;29884;47.450;19.124;2023-07-28T14:48:26;29.30;62.00
44215;DHT22;29884;47.450;19.124;2023-07-28T14:50:51;29.30;62.60
44215;DHT22;29884;47.450;19.124;2023-07-28T14:53:37;29.30;62.00
44215;DHT22;29884;47.450;19.124;2023-07-28T14:56:04;29.50;62.50
44215;DHT22;29884;47.450;19.124;2023-07-28T14:58:30;29.60;62.70
44215;DHT22;29884;47.450;19.124;2023-07-28T15:00:56;29.60;62.30
44215;DHT22;29884;47.450;19.124;2023-07-28T15:03:25;29.70;61.50
44215;DHT22;29884;47.450;19.124;2023-07-28T15:05:51;29.70;60.90
44215;DHT22;29884;47.450;19.124;2023-07-28T15:08:17;29.70;58.70
44215;DHT22;29884;47.450;19.124;2023-07-28T15:10:42;29.70;58.60
44215;DHT22;29884;47.450;19.124;2023-07-28T15:13:08;29.70;58.40
44215;DHT22;29884;47.450;19.124;2023-07-28T15:15:34;29.70;58.30
44215;DHT22;29884;47.450;19.124;2023-07-28T15:18:00;29.80;58.10
44215;DHT22;29884;47.450;19.124;2023-07-28T15:20:25;29.80;58.00
44215;DHT22;29884;47.450;19.124;2023-07-28T15:22:51;29.90;58.60
44215;DHT22;29884;47.450;19.124;2023-07-28T15:25:17;29.90;59.00
44215;DHT22;29884;47.450;19.124;2023-07-28T15:27:43;29.70;58.70
44215;DHT22;29884;47.450;19.124;2023-07-28T15:30:09;29.90;57.70
44215;DHT22;29884;47.450;19.124;2023-07-28T15:32:36;29.90;57.70